Time;durP1;ratioP1;P1;durP2;ratioP2;P2;SDS_P1;SDS_P2;PMS_P1;PMS_P2;Temp;Humidity;BMP_temperature;BMP_pressure;BME280_temperature;BME280_humidity;BME280_pressure;Samples;Min_cycle;Max_cycle;Signal;HPM_P1;HPM_P2
2021/07/21 00:00:52;;;;;;;21.25;13.25;;;;;;;;;;363439;144;857078;-61
2021/07/21 00:01:54;;;;;;;21.92;13.93;;;;;;;;;;362231;144;864797;-60
2021/07/21 00:02:56;;;;;;;21.68;13.25;;;;;;;;;;361905;145;866528;-61
2021/07/21 00:03:58;;;;;;;23.89;13.65;;;;;;;;;;361196;146;865642;-60
2021/07/21 00:04:59;;;;;;;23.74;13.56;;;;;;;;;;362821;145;858051;-60
2021/07/21 00:06:01;;;;;;;20.59;13.51;;;;;;;;;;362447;145;860117;-60
2021/07/21 00:07:05;;;;;;;18.89;13.28;;;;;;;;;;363933;145;865791;-60
2021/07/21 00:08:06;;;;;;;21.91;13.34;;;;;;;;;;362504;145;859478;-60
2021/07/21 00:09:08;;;;;;;25.23;13.84;;;;;;;;;;363463;145;866628;-60
2021/07/21 00:10:11;;;;;;;19.67;12.90;;;;;;;;;;363097;144;858133;-60
2021/07/21 00:13:54;;;;;;;19.86;11.54;;;;;;;;;;363243;145;857192;-60
2021/07/21 00:14:56;;;;;;;25.99;12.75;;;;;;;;;;363246;145;857281;-60
2021/07/21 00:17:05;;;;;;;18.13;12.62;;;;;;;;;;361726;146;857298;-61
2021/07/21 00:18:16;;;;;;;16.46;12.06;;;;;;;;;;361188;144;858076;-61
2021/07/21 00:20:31;;;;;;;21.03;12.66;;;;;;;;;;361713;146;860128;-61
2021/07/21 00:21:32;;;;;;;22.58;12.58;;;;;;;;;;360710;145;858899;-61
2021/07/21 00:22:35;;;;;;;22.30;12.49;;;;;;;;;;363928;145;859597;-61
2021/07/21 00:23:38;;;;;;;21.52;12.72;;;;;;;;;;363043;146;857290;-61
2021/07/21 00:24:43;;;;;;;20.94;12.56;;;;;;;;;;364357;144;857843;-61
2021/07/21 00:25:45;;;;;;;21.49;13.05;;;;;;;;;;363184;145;857681;-60
2021/07/21 00:26:48;;;;;;;19.72;13.15;;;;;;;;;;362759;146;866906;-60
2021/07/21 00:27:49;;;;;;;19.07;12.44;;;;;;;;;;362714;145;860533;-61
2021/07/21 00:28:51;;;;;;;17.32;12.08;;;;;;;;;;363920;144;857228;-61
2021/07/21 00:29:52;;;;;;;19.29;12.80;;;;;;;;;;360924;144;864814;-61
2021/07/21 00:30:54;;;;;;;19.23;13.45;;;;;;;;;;364138;146;857314;-61
2021/07/21 00:31:56;;;;;;;21.28;13.09;;;;;;;;;;363860;144;857298;-61
2021/07/21 00:32:57;;;;;;;22.03;13.71;;;;;;;;;;363766;145;864925;-61
2021/07/21 00:33:59;;;;;;;21.03;13.69;;;;;;;;;;362834;148;857242;-62
2021/07/21 00:35:01;;;;;;;20.71;13.17;;;;;;;;;;363930;145;857267;-62
2021/07/21 00:36:02;;;;;;;18.34;12.65;;;;;;;;;;364702;145;859129;-62
2021/07/21 00:37:04;;;;;;;20.45;12.21;;;;;;;;;;362123;146;866426;-61
2021/07/21 00:38:06;;;;;;;20.41;13.44;;;;;;;;;;361758;144;864811;-62
2021/07/21 00:39:07;;;;;;;24.01;13.04;;;;;;;;;;364588;146;865170;-62
2021/07/21 00:40:10;;;;;;;26.43;15.03;;;;;;;;;;363823;146;859081;-61
2021/07/21 00:41:11;;;;;;;26.36;13.37;;;;;;;;;;361759;144;860043;-61
2021/07/21 00:42:13;;;;;;;24.44;14.02;;;;;;;;;;363733;145;858964;-61
2021/07/21 00:43:15;;;;;;;16.76;12.92;;;;;;;;;;362595;144;856563;-61
2021/07/21 00:44:16;;;;;;;23.36;13.51;;;;;;;;;;362218;146;857335;-59
2021/07/21 00:45:18;;;;;;;17.47;12.09;;;;;;;;;;364153;145;857788;-61
2021/07/21 00:46:21;;;;;;;20.82;12.36;;;;;;;;;;362862;145;857347;-60
2021/07/21 00:47:22;;;;;;;20.54;12.29;;;;;;;;;;363689;145;857170;-61
2021/07/21 00:48:24;;;;;;;19.42;12.92;;;;;;;;;;364821;144;857347;-61
2021/07/21 00:49:25;;;;;;;20.04;13.50;;;;;;;;;;361891;144;859058;-61
2021/07/21 00:50:27;;;;;;;16.73;12.72;;;;;;;;;;363312;145;859014;-61
2021/07/21 00:51:29;;;;;;;17.89;11.99;;;;;;;;;;362630;148;858970;-61
2021/07/21 00:52:34;;;;;;;24.09;12.36;;;;;;;;;;364195;146;858062;-61
2021/07/21 00:53:36;;;;;;;21.53;12.35;;;;;;;;;;363465;144;865292;-61
2021/07/21 00:54:38;;;;;;;19.39;12.70;;;;;;;;;;364738;144;858561;-61
2021/07/21 00:55:39;;;;;;;21.54;12.51;;;;;;;;;;360562;145;866515;-60
2021/07/21 00:56:42;;;;;;;20.30;12.88;;;;;;;;;;363196;144;858958;-62
2021/07/21 00:57:43;;;;;;;17.57;12.44;;;;;;;;;;364640;145;857233;-61
2021/07/21 00:58:45;;;;;;;21.10;13.59;;;;;;;;;;362104;144;859123;-61
2021/07/21 00:59:47;;;;;;;19.50;13.10;;;;;;;;;;362853;145;859551;-61
2021/07/21 01:00:53;;;;;;;21.23;13.09;;;;;;;;;;364604;145;857395;-61
2021/07/21 01:39:08;;;;;;;15.44;8.83;;;;;;;22.59;69.45;99056.69;373309;142;883109;-61
2021/07/21 01:40:13;;;;;;;15.03;8.72;;;;;;;22.55;69.29;99064.92;366020;145;857343;-62
2021/07/21 01:41:30;;;;;;;12.98;9.31;;;;;;;22.59;69.17;99061.97;366353;144;859920;-61
2021/07/21 01:42:32;;;;;;;13.77;9.49;;;;;;;22.61;69.07;99062.70;368789;144;857357;-63
2021/07/21 01:43:34;;;;;;;15.61;10.28;;;;;;;22.62;68.77;99060.89;366161;144;857419;-60
2021/07/21 01:44:41;;;;;;;14.19;10.07;;;;;;;22.58;68.66;99060.28;367016;144;866670;-61
2021/07/21 01:45:44;;;;;;;15.11;10.31;;;;;;;22.54;68.75;99063.23;367597;144;864964;-61
2021/07/21 01:46:49;;;;;;;18.68;11.26;;;;;;;22.47;68.86;99065.48;366748;144;857424;-61
2021/07/21 01:47:51;;;;;;;22.26;11.62;;;;;;;22.40;69.00;99062.41;366309;144;859810;-61
2021/07/21 01:48:55;;;;;;;16.75;11.41;;;;;;;22.31;69.04;99053.38;367951;144;857185;-61
2021/07/21 01:49:57;;;;;;;17.23;11.09;;;;;;;22.23;69.22;99053.05;366867;144;865738;-60
2021/07/21 01:50:59;;;;;;;16.65;11.87;;;;;;;;;;366610;144;857328;-60
2021/07/21 01:52:09;;;;;;;22.35;12.81;;;;;;;;;;366740;144;864821;-60
2021/07/21 01:53:10;;;;;;;18.35;12.03;;;;;;;;;;369086;144;861097;-61
2021/07/21 01:54:12;;;;;;;19.70;11.91;;;;;;;;;;367753;144;858571;-61
2021/07/21 01:55:14;;;;;;;19.01;12.74;;;;;;;;;;366108;144;864909;-61
2021/07/21 01:56:16;;;;;;;22.53;14.30;;;;;;;;;;369149;144;857400;-61
2021/07/21 01:57:18;;;;;;;18.34;12.65;;;;;;;;;;366178;144;857343;-61
2021/07/21 01:58:19;;;;;;;22.68;12.73;;;;;;;;;;367107;144;857314;-61
2021/07/21 01:59:21;;;;;;;23.11;13.21;;;;;;;;;;366751;144;858121;-60
2021/07/21 02:00:23;;;;;;;21.89;14.01;;;;;;;;;;367651;144;860194;-61
2021/07/21 02:01:26;;;;;;;23.61;13.92;;;;;;;;;;365964;147;858080;-61
2021/07/21 02:02:28;;;;;;;20.27;12.81;;;;;;;;;;366130;144;858833;-61
2021/07/21 02:03:29;;;;;;;21.01;13.02;;;;;;;;;;367277;144;858421;-60
2021/07/21 02:04:31;;;;;;;20.80;13.23;;;;;;;;;;366578;144;865225;-61
2021/07/21 02:05:32;;;;;;;20.70;13.19;;;;;;;;;;366097;147;857415;-61
2021/07/21 02:06:34;;;;;;;21.97;12.77;;;;;;;;;;366405;144;859066;-61
2021/07/21 02:07:36;;;;;;;21.25;13.63;;;;;;;;;;367720;144;859030;-61
2021/07/21 02:08:37;;;;;;;18.92;12.64;;;;;;;;;;367749;144;857817;-61
2021/07/21 02:09:39;;;;;;;18.37;13.18;;;;;;;;;;366275;144;860539;-60
2021/07/21 02:10:43;;;;;;;22.25;13.16;;;;;;;;;;366838;144;859863;-61
2021/07/21 02:11:44;;;;;;;19.01;12.08;;;;;;;;;;366828;144;864860;-61
2021/07/21 02:12:47;;;;;;;21.47;13.94;;;;;;;;;;370578;144;857198;-61
2021/07/21 02:13:49;;;;;;;20.56;13.55;;;;;;;;;;365876;144;857380;-61
2021/07/21 02:14:51;;;;;;;19.45;13.51;;;;;;;;;;366013;144;858163;-61
2021/07/21 02:15:52;;;;;;;21.16;13.35;;;;;;;;;;366012;146;857362;-60
2021/07/21 02:16:55;;;;;;;20.65;13.59;;;;;;;;;;367057;144;857181;-61
2021/07/21 02:17:57;;;;;;;22.01;13.48;;;;;;;;;;368909;144;857213;-61
2021/07/21 02:18:59;;;;;;;23.46;12.97;;;;;;;;;;368938;144;857266;-61
2021/07/21 02:20:00;;;;;;;19.28;14.06;;;;;;;;;;366470;144;857299;-61
2021/07/21 02:21:04;;;;;;;19.71;13.76;;;;;;;;;;367819;144;859246;-61
2021/07/21 02:22:05;;;;;;;21.34;14.06;;;;;;;;;;365079;147;858827;-62
2021/07/21 02:23:07;;;;;;;19.56;13.51;;;;;;;;;;369214;144;857444;-61
2021/07/21 02:24:09;;;;;;;22.67;13.70;;;;;;;;;;367455;144;857322;-61
2021/07/21 02:25:10;;;;;;;20.02;13.64;;;;;;;;;;369360;144;857512;-61
2021/07/21 02:26:14;;;;;;;20.57;13.66;;;;;;;;;;365817;144;866298;-60
2021/07/21 02:27:15;;;;;;;19.62;13.42;;;;;;;;;;366184;144;858124;-60
2021/07/21 02:28:17;;;;;;;19.78;13.34;;;;;;;;;;366829;144;864877;-61
2021/07/21 02:29:19;;;;;;;20.69;13.40;;;;;;;;;;366272;144;857214;-61
2021/07/21 02:30:23;;;;;;;20.44;13.04;;;;;;;;;;368603;144;857133;-61
2021/07/21 02:31:25;;;;;;;20.58;13.36;;;;;;;;;;367726;144;857840;-61
2021/07/21 02:32:29;;;;;;;20.74;14.37;;;;;;;;;;366694;144;864726;-60
2021/07/21 02:33:44;;;;;;;18.89;12.67;;;;;;;;;;372378;144;859457;-60
2021/07/21 02:34:45;;;;;;;20.22;12.58;;;;;;;;;;366701;144;857181;-61
2021/07/21 02:35:47;;;;;;;17.56;11.77;;;;;;;;;;369798;144;858043;-60
2021/07/21 02:36:50;;;;;;;22.73;13.45;;;;;;;;;;366538;144;865607;-61
2021/07/21 02:37:52;;;;;;;22.76;12.18;;;;;;;;;;367808;144;857269;-60
2021/07/21 02:38:53;;;;;;;20.27;13.54;;;;;;;;;;369470;144;857360;-61
2021/07/21 02:39:55;;;;;;;20.67;13.49;;;;;;;;;;369361;144;858765;-61
2021/07/21 02:40:58;;;;;;;20.97;13.23;;;;;;;;;;367703;144;866104;-60
2021/07/21 02:42:00;;;;;;;21.22;13.59;;;;;;;;;;366852;144;857379;-60
2021/07/21 02:43:01;;;;;;;22.02;12.79;;;;;;;;;;366908;144;857405;-60
2021/07/21 02:44:03;;;;;;;20.96;13.42;;;;;;;;;;366206;144;859676;-60
2021/07/21 02:45:06;;;;;;;22.42;12.50;;;;;;;;;;366337;144;858625;-61
2021/07/21 02:46:09;;;;;;;20.09;14.08;;;;;;;;;;369042;144;860832;-60
2021/07/21 02:47:11;;;;;;;17.89;12.46;;;;;;;;;;366127;144;857376;-60
2021/07/21 02:48:12;;;;;;;20.71;13.57;;;;;;;;;;366675;144;859733;-60
2021/07/21 02:49:15;;;;;;;18.96;11.66;;;;;;;;;;365717;144;859108;-60
2021/07/21 02:50:17;;;;;;;18.45;12.70;;;;;;;;;;366042;144;858785;-60
2021/07/21 02:51:26;;;;;;;22.31;13.28;;;;;;;;;;365833;144;857824;-60
2021/07/21 02:52:45;;;;;;;21.14;14.41;;;;;;;;;;367315;144;866922;-60
2021/07/21 02:53:49;;;;;;;28.44;14.51;;;;;;;;;;370131;144;858982;-60
2021/07/21 02:55:09;;;;;;;21.69;14.58;;;;;;;;;;366670;144;859444;-60
2021/07/21 02:56:12;;;;;;;22.46;13.16;;;;;;;;;;368603;144;861270;-60
2021/07/21 02:57:22;;;;;;;20.87;14.23;;;;;;;;;;367496;144;857631;-59
2021/07/21 02:58:25;;;;;;;23.19;15.43;;;;;;;;;;367399;144;859451;-61
2021/07/21 02:59:29;;;;;;;25.56;15.18;;;;;;;;;;368169;144;857226;-61
2021/07/21 03:00:31;;;;;;;22.71;16.11;;;;;;;;;;368343;144;857212;-60
2021/07/21 03:01:33;;;;;;;24.60;15.24;;;;;;;;;;367515;144;865636;-60
2021/07/21 03:02:34;;;;;;;21.31;15.64;;;;;;;;;;365615;144;866698;-60
2021/07/21 03:03:36;;;;;;;24.08;16.79;;;;;;;;;;366199;144;859002;-61
2021/07/21 03:04:38;;;;;;;25.81;15.79;;;;;;;;;;366029;144;864963;-60
2021/07/21 03:05:40;;;;;;;24.58;15.84;;;;;;;;;;367743;144;864813;-59
2021/07/21 03:06:42;;;;;;;24.39;15.36;;;;;;;;;;367861;144;857309;-59
2021/07/21 03:07:47;;;;;;;22.63;15.77;;;;;;;;;;368497;144;857106;-61
2021/07/21 03:08:49;;;;;;;25.39;13.99;;;;;;;;;;367148;144;857100;-60
2021/07/21 03:09:52;;;;;;;20.76;13.56;;;;;;;;;;366489;144;857233;-62
2021/07/21 03:10:56;;;;;;;22.99;14.78;;;;;;;;;;369732;144;858019;-62
2021/07/21 03:11:58;;;;;;;25.19;15.28;;;;;;;;;;366230;144;857764;-60
2021/07/21 03:13:02;;;;;;;21.19;14.33;;;;;;;;;;366780;144;866309;-59
2021/07/21 03:14:03;;;;;;;22.02;14.76;;;;;;;;;;368910;144;857854;-60
2021/07/21 03:15:06;;;;;;;21.60;14.71;;;;;;;;;;367255;144;858812;-60
2021/07/21 03:16:09;;;;;;;27.71;16.01;;;;;;;;;;368614;144;867476;-60
2021/07/21 03:17:13;;;;;;;25.20;14.51;;;;;;;;;;366313;144;857664;-61
2021/07/21 03:18:19;;;;;;;20.44;14.11;;;;;;;;;;365984;144;858259;-61
2021/07/21 03:19:23;;;;;;;24.18;14.62;;;;;;;;;;360080;145;857260;-59
2021/07/21 03:20:26;;;;;;;24.78;15.53;;;;;;;;;;359635;145;857839;-60
2021/07/21 03:21:28;;;;;;;22.46;15.42;;;;;;;;;;369920;144;857380;-60
2021/07/21 03:22:30;;;;;;;27.67;15.43;;;;;;;;;;366398;144;858654;-59
2021/07/21 03:23:31;;;;;;;19.70;13.74;;;;;;;;;;366498;144;859792;-61
2021/07/21 03:24:33;;;;;;;22.00;13.79;;;;;;;;;;368247;144;860039;-61
2021/07/21 03:25:34;;;;;;;20.66;13.37;;;;;;;;;;359277;148;857972;-60
2021/07/21 03:26:38;;;;;;;25.88;15.11;;;;;;;;;;365444;144;857346;-60
2021/07/21 03:27:39;;;;;;;17.99;11.86;;;;;;;;;;366672;144;857695;-59
2021/07/21 03:28:41;;;;;;;20.79;12.49;;;;;;;;;;368765;144;866605;-60
2021/07/21 03:29:43;;;;;;;19.78;12.24;;;;;;;;;;367434;144;859109;-60
2021/07/21 03:30:46;;;;;;;18.30;13.05;;;;;;;;;;366896;144;858079;-60
2021/07/21 03:31:47;;;;;;;17.71;12.25;;;;;;;;;;366636;144;857185;-60
2021/07/21 03:32:49;;;;;;;20.91;13.91;;;;;;;;;;366771;144;858413;-60
2021/07/21 03:33:52;;;;;;;21.68;15.16;;;;;;;;;;366080;144;857516;-60
2021/07/21 03:34:54;;;;;;;18.73;11.96;;;;;;;;;;365908;144;867111;-60
2021/07/21 03:36:02;;;;;;;22.23;13.19;;;;;;;;;;365748;147;857176;-60
2021/07/21 03:37:04;;;;;;;18.94;12.08;;;;;;;;;;365980;144;857432;-59
2021/07/21 03:38:05;;;;;;;21.81;13.46;;;;;;;;;;366119;144;857349;-60
2021/07/21 03:39:07;;;;;;;20.48;12.74;;;;;;;;;;365879;147;857476;-61
2021/07/21 03:40:11;;;;;;;17.79;12.09;;;;;;;;;;366329;144;857313;-59
2021/07/21 03:41:12;;;;;;;20.20;12.39;;;;;;;;;;367057;144;857294;-60
2021/07/21 03:42:14;;;;;;;17.17;12.39;;;;;;;;;;367265;144;858761;-60
2021/07/21 03:43:16;;;;;;;19.43;13.14;;;;;;;;;;370136;144;857442;-59
2021/07/21 03:44:19;;;;;;;20.77;11.77;;;;;;;;;;365641;144;857807;-60
2021/07/21 03:45:22;;;;;;;17.59;11.58;;;;;;;;;;366525;144;857282;-60
2021/07/21 03:46:24;;;;;;;20.24;11.01;;;;;;;;;;366342;144;858995;-60
2021/07/21 03:47:25;;;;;;;19.29;12.59;;;;;;;;;;367527;144;858843;-60
2021/07/21 03:48:27;;;;;;;20.35;12.43;;;;;;;;;;368290;144;857291;-60
2021/07/21 03:49:29;;;;;;;19.06;10.32;;;;;;;;;;367220;144;857317;-59
2021/07/21 03:50:31;;;;;;;17.35;12.82;;;;;;;;;;366259;144;858953;-59
2021/07/21 03:51:34;;;;;;;21.19;12.31;;;;;;;;;;366627;144;857310;-60
2021/07/21 03:52:35;;;;;;;19.11;11.57;;;;;;;;;;367228;144;857387;-59
2021/07/21 03:53:37;;;;;;;19.24;11.85;;;;;;;;;;372227;144;859008;-60
2021/07/21 03:54:39;;;;;;;16.99;10.97;;;;;;;;;;366221;144;864577;-60
2021/07/21 03:55:40;;;;;;;17.95;12.35;;;;;;;;;;366106;144;864923;-61
2021/07/21 03:56:43;;;;;;;17.12;10.97;;;;;;;;;;366681;144;857268;-60
2021/07/21 03:57:45;;;;;;;20.51;12.63;;;;;;;;;;365684;144;864872;-61
2021/07/21 03:58:47;;;;;;;18.87;12.31;;;;;;;;;;361861;147;857175;-60
2021/07/21 04:00:08;;;;;;;17.84;12.24;;;;;;;;;;362991;147;857343;-59
2021/07/21 04:01:09;;;;;;;17.59;12.72;;;;;;;;;;356507;149;857547;-60
2021/07/21 04:02:11;;;;;;;18.88;12.57;;;;;;;;;;349225;149;857415;-59
2021/07/21 04:03:13;;;;;;;18.08;12.48;;;;;;;;;;349484;150;864866;-63
2021/07/21 04:04:15;;;;;;;20.85;12.55;;;;;;;;;;350453;153;856676;-61
2021/07/21 04:05:17;;;;;;;21.23;12.92;;;;;;;;;;351535;151;858786;-61
2021/07/21 04:06:19;;;;;;;19.40;12.73;;;;;;;;;;350490;151;858582;-61
2021/07/21 04:07:20;;;;;;;19.46;12.76;;;;;;;;;;350908;152;857821;-64
2021/07/21 04:08:22;;;;;;;20.69;13.86;;;;;;;;;;348117;149;864713;-62
2021/07/21 04:09:24;;;;;;;21.38;13.39;;;;;;;;;;351097;151;857236;-62
2021/07/21 04:10:29;;;;;;;18.22;12.86;;;;;;;;;;351736;151;857464;-63
2021/07/21 04:11:32;;;;;;;25.24;13.04;;;;;;;;;;348251;152;857315;-59
2021/07/21 04:12:34;;;;;;;19.59;13.01;;;;;;;;;;350286;149;865747;-59
2021/07/21 04:13:35;;;;;;;20.93;12.91;;;;;;;;;;351610;151;858654;-64
2021/07/21 04:14:37;;;;;;;18.51;10.41;;;;;;;;;;350400;153;857311;-60
2021/07/21 04:15:38;;;;;;;18.67;11.99;;;;;;;;;;352206;149;857171;-62
2021/07/21 04:16:42;;;;;;;19.54;12.43;;;;;;;;;;351491;151;857292;-61
2021/07/21 04:17:44;;;;;;;20.02;12.15;;;;;;;;;;352121;152;857341;-61
2021/07/21 04:18:46;;;;;;;17.77;12.28;;;;;;;;;;351279;151;857236;-61
2021/07/21 04:19:47;;;;;;;18.03;11.84;;;;;;;;;;351283;151;857307;-60
2021/07/21 04:20:51;;;;;;;15.71;11.83;;;;;;;;;;352716;151;857841;-58
2021/07/21 04:21:53;;;;;;;16.74;11.75;;;;;;;;;;350561;152;859044;-58
2021/07/21 04:22:55;;;;;;;17.17;11.95;;;;;;;;;;349880;151;866613;-59
2021/07/21 04:23:57;;;;;;;13.61;8.89;;;;;;;;;;351264;151;859057;-61
2021/07/21 04:24:59;;;;;;;20.75;12.31;;;;;;;;;;350995;152;866644;-64
2021/07/21 04:26:00;;;;;;;17.34;10.83;;;;;;;;;;348387;151;857849;-61
2021/07/21 04:27:03;;;;;;;21.72;12.64;;;;;;;;;;351162;150;858366;-61
2021/07/21 04:28:05;;;;;;;18.53;11.61;;;;;;;;;;352503;151;864911;-63
2021/07/21 04:29:11;;;;;;;18.52;11.24;;;;;;;;;;348432;152;864988;-60
2021/07/21 04:30:13;;;;;;;16.73;11.24;;;;;;;;;;348345;151;857381;-60
2021/07/21 04:31:15;;;;;;;15.94;12.35;;;;;;;;;;353038;150;856644;-60
2021/07/21 04:32:17;;;;;;;17.56;11.06;;;;;;;;;;342876;155;865029;-61
2021/07/21 04:33:18;;;;;;;16.53;10.76;;;;;;;;;;343512;152;864914;-59
2021/07/21 04:34:20;;;;;;;15.18;11.01;;;;;;;;;;349827;150;857176;-59
2021/07/21 04:35:21;;;;;;;17.51;11.14;;;;;;;;;;346965;152;857176;-59
2021/07/21 04:36:23;;;;;;;15.05;10.53;;;;;;;;;;346346;154;857222;-59
2021/07/21 04:37:25;;;;;;;15.21;10.30;;;;;;;;;;352088;150;857219;-58
2021/07/21 04:38:27;;;;;;;16.22;11.02;;;;;;;;;;353105;150;857285;-58
2021/07/21 04:39:28;;;;;;;18.31;12.13;;;;;;;;;;352322;152;857384;-58
2021/07/21 04:40:31;;;;;;;18.21;11.93;;;;;;;;;;350169;151;864995;-58
2021/07/21 04:41:33;;;;;;;19.80;11.71;;;;;;;;;;351101;151;864999;-58
2021/07/21 04:42:34;;;;;;;16.95;11.59;;;;;;;;;;349682;152;857250;-59
2021/07/21 04:43:36;;;;;;;19.68;11.24;;;;;;;;;;349856;151;857310;-58
2021/07/21 04:44:39;;;;;;;16.44;11.33;;;;;;;;;;350055;150;859026;-57
2021/07/21 04:45:43;;;;;;;17.98;11.15;;;;;;;;;;342674;155;866548;-62
2021/07/21 04:46:45;;;;;;;16.77;11.12;;;;;;;;;;342725;152;857416;-60
2021/07/21 04:47:47;;;;;;;20.55;11.25;;;;;;;;;;350261;151;864616;-60
2021/07/21 04:48:49;;;;;;;15.66;10.62;;;;;;;;;;352975;150;858293;-59
2021/07/21 04:49:50;;;;;;;14.98;10.79;;;;;;;;;;349438;154;865792;-59
2021/07/21 04:50:53;;;;;;;19.36;11.02;;;;;;;;;;351162;151;859110;-60
2021/07/21 04:52:02;;;;;;;16.52;10.76;;;;;;;;;;353239;152;857267;-59
2021/07/21 04:53:03;;;;;;;15.58;10.91;;;;;;;;;;348890;152;866731;-61
2021/07/21 04:54:05;;;;;;;15.96;9.66;;;;;;;;;;347662;151;857331;-60
2021/07/21 04:55:07;;;;;;;17.26;10.59;;;;;;;;;;351033;151;860025;-59
2021/07/21 04:56:10;;;;;;;15.08;10.68;;;;;;;;;;348482;152;857325;-59
2021/07/21 04:57:12;;;;;;;14.26;9.84;;;;;;;;;;348348;151;860878;-61
2021/07/21 04:58:14;;;;;;;14.69;10.59;;;;;;;;;;352424;151;857391;-63
2021/07/21 04:59:15;;;;;;;16.24;9.78;;;;;;;;;;350230;151;856483;-59
2021/07/21 05:00:18;;;;;;;14.53;9.51;;;;;;;;;;351779;152;857331;-59
2021/07/21 05:01:20;;;;;;;13.60;9.79;;;;;;;;;;351187;151;857701;-59
2021/07/21 05:02:21;;;;;;;14.59;9.85;;;;;;;;;;353615;151;857234;-57
2021/07/21 05:03:23;;;;;;;13.63;9.72;;;;;;;;;;353581;152;864857;-58
2021/07/21 05:04:24;;;;;;;14.31;10.08;;;;;;;;;;352152;151;857265;-59
2021/07/21 05:05:26;;;;;;;17.03;10.14;;;;;;;;;;349691;150;857257;-59
2021/07/21 05:06:29;;;;;;;15.47;8.95;;;;;;;;;;351880;151;857250;-62
2021/07/21 05:07:31;;;;;;;14.69;9.49;;;;;;;;;;351665;150;857219;-61
2021/07/21 05:08:32;;;;;;;12.87;9.09;;;;;;;;;;350049;151;865171;-61
2021/07/21 05:09:34;;;;;;;17.40;10.49;;;;;;;;;;351920;152;858258;-65
2021/07/21 05:10:37;;;;;;;15.05;9.53;;;;;;;;;;351318;152;857556;-64
2021/07/21 05:11:39;;;;;;;16.37;9.63;;;;;;;;;;351361;151;865885;-57
2021/07/21 05:12:44;;;;;;;14.17;9.75;;;;;;;;;;352685;150;865134;-61
2021/07/21 05:13:44;;;;;;;13.99;10.18;;;;;;;;;;353789;152;857772;-63
2021/07/21 05:14:45;;;;;;;14.25;9.26;;;;;;;;;;353055;151;857201;-61
2021/07/21 05:15:48;;;;;;;17.52;10.30;;;;;;;;;;351470;152;860396;-62
2021/07/21 05:16:50;;;;;;;14.47;9.98;;;;;;;;;;349841;151;857449;-60
2021/07/21 05:17:51;;;;;;;16.15;9.91;;;;;;;;;;348702;150;865311;-59
2021/07/21 05:18:53;;;;;;;12.78;8.79;;;;;;;;;;350270;151;857168;-60
2021/07/21 05:19:54;;;;;;;15.81;9.59;;;;;;;;;;350426;151;864842;-59
2021/07/21 05:20:57;;;;;;;15.29;9.55;;;;;;;;;;351488;150;857195;-62
2021/07/21 05:21:59;;;;;;;15.87;9.73;;;;;;;;;;351720;150;857743;-62
2021/07/21 05:23:01;;;;;;;15.61;9.00;;;;;;;;;;350558;151;859913;-62
2021/07/21 05:24:03;;;;;;;12.73;8.70;;;;;;;;;;350450;150;857268;-63
2021/07/21 05:25:05;;;;;;;14.57;8.63;;;;;;;;;;349911;152;857680;-65
2021/07/21 05:26:08;;;;;;;13.94;9.93;;;;;;;;;;351032;151;859947;-63
2021/07/21 05:27:09;;;;;;;17.29;9.27;;;;;;;;;;350987;152;858360;-63
2021/07/21 05:28:11;;;;;;;13.22;8.89;;;;;;;;;;351579;152;859536;-64
2021/07/21 05:29:13;;;;;;;13.65;8.78;;;;;;;;;;352281;151;865211;-63
2021/07/21 05:30:15;;;;;;;15.13;8.87;;;;;;;;;;351426;150;864995;-63
2021/07/21 05:31:17;;;;;;;13.42;9.54;;;;;;;;;;347245;152;857498;-62
2021/07/21 05:32:18;;;;;;;12.10;8.22;;;;;;;;;;349219;152;857203;-66
2021/07/21 05:33:20;;;;;;;14.76;9.44;;;;;;;;;;349176;151;857258;-62
2021/07/21 05:34:21;;;;;;;17.71;9.36;;;;;;;;;;352674;152;858891;-61
2021/07/21 05:35:23;;;;;;;13.66;9.16;;;;;;;;;;354024;152;857406;-63
2021/07/21 05:36:25;;;;;;;16.93;8.61;;;;;;;;;;351912;151;859025;-62
2021/07/21 05:37:27;;;;;;;13.59;8.44;;;;;;;;;;349814;151;857489;-62
2021/07/21 05:38:29;;;;;;;13.91;8.89;;;;;;;;;;354009;152;860108;-63
2021/07/21 05:39:31;;;;;;;11.92;8.31;;;;;;;;;;352109;151;858185;-62
2021/07/21 05:40:34;;;;;;;11.51;8.26;;;;;;;;;;350588;150;859434;-64
2021/07/21 05:41:35;;;;;;;11.39;8.49;;;;;;;;;;350468;152;857372;-62
2021/07/21 05:42:37;;;;;;;538.89;277.08;;;;;;;;;;351301;152;857268;-64
2021/07/21 05:43:39;;;;;;;70.67;48.11;;;;;;;;;;351672;152;858993;-66
2021/07/21 05:44:40;;;;;;;24.82;17.24;;;;;;;;;;347933;150;858303;-62
2021/07/21 05:45:42;;;;;;;17.17;12.36;;;;;;;;;;348507;152;859057;-61
2021/07/21 05:46:46;;;;;;;15.35;9.58;;;;;;;;;;349891;151;857327;-62
2021/07/21 05:47:47;;;;;;;14.52;9.48;;;;;;;;;;351050;151;859017;-63
2021/07/21 05:48:49;;;;;;;13.98;8.66;;;;;;;;;;351025;152;865812;-62
2021/07/21 05:49:50;;;;;;;16.40;7.84;;;;;;;;;;346682;151;857336;-61
2021/07/21 05:50:54;;;;;;;12.12;7.42;;;;;;;;;;351628;150;857205;-62
2021/07/21 05:51:56;;;;;;;14.61;8.57;;;;;;;;;;349875;152;857708;-62
2021/07/21 05:52:58;;;;;;;13.54;7.89;;;;;;;;;;349739;153;857279;-61
2021/07/21 05:53:59;;;;;;;10.55;7.23;;;;;;;;;;353089;151;857269;-62
2021/07/21 05:55:01;;;;;;;12.61;7.63;;;;;;;;;;349837;150;859105;-62
2021/07/21 05:56:05;;;;;;;13.63;8.25;;;;;;;;;;351533;152;858028;-64
2021/07/21 05:57:06;;;;;;;11.71;7.52;;;;;;;;;;349486;151;858861;-62
2021/07/21 05:58:08;;;;;;;11.91;7.17;;;;;;;;;;351271;151;860421;-62
2021/07/21 05:59:10;;;;;;;12.72;7.41;;;;;;;;;;345370;156;857458;-63
2021/07/21 06:00:13;;;;;;;11.45;7.03;;;;;;;;;;349390;150;857430;-64
2021/07/21 06:01:15;;;;;;;12.50;7.34;;;;;;;;;;352620;152;858671;-63
2021/07/21 06:02:16;;;;;;;12.56;7.90;;;;;;;;;;349544;152;866807;-63
2021/07/21 06:03:20;;;;;;;13.19;7.74;;;;;;;;;;350715;152;867007;-63
2021/07/21 06:04:21;;;;;;;12.63;7.71;;;;;;;;;;352794;150;858143;-63
2021/07/21 06:05:23;;;;;;;12.18;7.76;;;;;;;;;;353795;150;857231;-63
2021/07/21 06:06:25;;;;;;;12.37;7.48;;;;;;;;;;352879;152;857815;-63
2021/07/21 06:07:26;;;;;;;13.78;7.52;;;;;;;;;;348302;150;866766;-63
2021/07/21 06:08:28;;;;;;;13.34;7.48;;;;;;;;;;352180;150;866682;-63
2021/07/21 06:09:30;;;;;;;10.80;7.76;;;;;;;;;;350952;152;858985;-63
2021/07/21 06:10:33;;;;;;;13.44;7.71;;;;;;;;;;350528;152;858850;-63
2021/07/21 06:11:35;;;;;;;9.09;6.85;;;;;;;;;;351430;150;857467;-63
2021/07/21 06:12:36;;;;;;;11.90;7.34;;;;;;;;;;350587;150;860706;-63
2021/07/21 06:13:38;;;;;;;14.09;7.02;;;;;;;;;;350636;152;857810;-63
2021/07/21 06:14:40;;;;;;;12.71;7.48;;;;;;;;;;351638;152;857214;-63
2021/07/21 06:15:42;;;;;;;11.74;7.59;;;;;;;;;;349934;150;857254;-63
2021/07/21 06:16:44;;;;;;;9.87;7.07;;;;;;;;;;347475;152;857207;-63
2021/07/21 06:17:45;;;;;;;12.00;6.99;;;;;;;;;;347387;150;857278;-63
2021/07/21 06:18:47;;;;;;;9.50;6.62;;;;;;;;;;352898;150;857805;-62
2021/07/21 06:19:49;;;;;;;12.19;7.28;;;;;;;;;;349006;152;857355;-62
2021/07/21 06:20:52;;;;;;;11.34;7.21;;;;;;;;;;354706;152;857430;-62
2021/07/21 06:21:54;;;;;;;11.46;7.30;;;;;;;;;;353009;150;857229;-62
2021/07/21 06:22:55;;;;;;;10.42;6.71;;;;;;;;;;352789;151;857269;-63
2021/07/21 06:23:57;;;;;;;15.65;7.42;;;;;;;;;;353747;152;859028;-63
2021/07/21 06:24:59;;;;;;;16.52;7.96;;;;;;;;;;353083;152;859052;-63
2021/07/21 06:26:01;;;;;;;14.39;7.25;;;;;;;;;;351863;150;858510;-63
2021/07/21 06:27:03;;;;;;;9.69;6.44;;;;;;;;;;354901;152;859959;-63
2021/07/21 06:28:04;;;;;;;11.85;6.66;;;;;;;;;;354857;152;857224;-63
2021/07/21 06:29:06;;;;;;;9.29;6.93;;;;;;;;;;352744;150;857988;-63
2021/07/21 06:30:09;;;;;;;11.94;6.80;;;;;;;;;;349102;150;857514;-63
2021/07/21 06:31:11;;;;;;;12.89;6.51;;;;;;;;;;346287;155;858435;-63
2021/07/21 06:32:12;;;;;;;10.96;6.65;;;;;;;;;;350218;150;858541;-63
2021/07/21 06:33:17;;;;;;;12.01;7.19;;;;;;;;;;352826;150;865012;-63
2021/07/21 06:34:17;;;;;;;9.38;6.62;;;;;;;;;;354530;152;857350;-63
2021/07/21 06:35:19;;;;;;;10.94;6.97;;;;;;;;;;352785;150;858427;-63
2021/07/21 06:36:21;;;;;;;12.91;7.01;;;;;;;;;;352427;151;857230;-63
2021/07/21 06:37:23;;;;;;;10.26;6.03;;;;;;;;;;349077;152;857258;-63
2021/07/21 06:38:24;;;;;;;12.06;7.68;;;;;;;;;;347878;152;857206;-64
2021/07/21 06:39:26;;;;;;;11.82;6.90;;;;;;;;;;349513;150;857371;-63